Polar Bear — ZMA2072 — position and weather

sailwx.info

Track history (hours):
 
Tides and Currents Weather Stations Pressure Air Temp Water Temp Dewpoint Dewpoint Depression Visibility Wind Speed Wind Dir Waves Ship Positions

Polar Bear

Last reported at 2015-Mar-27 00:29 UTC. Time now 2015-Apr-21 06:38 UTC.
Position N 49°10' W 123°55'.
Warning: this ship's position is 25 days out of date.

Length 28 m; draft 2.3 m.

Type: Pleasure craft. MMSI: 512172000.

Date/timePositionNaut miles runAvg speedWind from/ knotsBaromVisibWave heightAir tempDewpointWater temp
2015-Mar-27 00:29N 49°10' W 123°55'8 8.4
2015-Mar-26 23:33N 49°11' W 123°44'1010.4
2015-Mar-26 22:33N 49°05' W 123°31'1010.0
2015-Mar-26 21:33N 48°58' W 123°19'9 9.3
2015-Mar-26 20:32N 48°52' W 123°08'9 8.6
2015-Mar-26 19:33N 48°46' W 122°59'1010.0
2015-Mar-26 18:33N 48°41' W 122°46'9 9.4
2015-Mar-26 17:33N 48°32' W 122°40'2 1.6
2015-Mar-26 16:32N 48°31' W 122°39'0 0.0
2015-Mar-26 15:32N 48°31' W 122°39'2 2.0
2015-Mar-26 14:34N 48°31' W 122°36'0 0.4
2015-Mar-26 13:33N 48°31' W 122°36'0 0.0
2015-Mar-26 12:33N 48°31' W 122°36'0 0.0
2015-Mar-26 11:33N 48°31' W 122°36'0 0.0
2015-Mar-26 10:27N 48°31' W 122°36'0 0.0
2015-Mar-26 09:27N 48°31' W 122°36'0 0.0
2015-Mar-26 08:33N 48°31' W 122°36'0 0.0
2015-Mar-26 07:33N 48°31' W 122°36'0 0.0
2015-Mar-26 06:33N 48°31' W 122°36'0 0.0
2015-Mar-26 05:33N 48°31' W 122°36'0 0.0
2015-Mar-26 03:33N 48°31' W 122°36'0 0.0
2015-Mar-26 02:27N 48°31' W 122°36'0 0.0
2015-Mar-26 01:33N 48°31' W 122°36'0 0.0
2015-Mar-26 00:33N 48°31' W 122°36'0 0.0
2015-Mar-25 23:33N 48°31' W 122°36'0 0.0
2015-Mar-25 22:33N 48°31' W 122°36'0 0.0
2015-Mar-25 21:30N 48°31' W 122°36'0 0.0
2015-Mar-25 20:33N 48°31' W 122°36'0 0.0
2015-Mar-25 19:33N 48°31' W 122°36'4 4.0
2015-Mar-25 18:33N 48°35' W 122°36'1010.2
2015-Mar-25 17:33N 48°41' W 122°47'10 9.7
2015-Mar-25 16:33N 48°44' W 123°01'10 0.6
2015-Mar-25 00:33N 48°48' W 123°15'1110.1
2015-Mar-24 23:29N 48°54' W 123°28'1210.0
2015-Mar-24 22:17N 49°03' W 123°41'810.3
2015-Mar-24 21:28N 49°09' W 123°50'  
Track history (hours):
 
Tides and Currents Weather Stations Pressure Air Temp Water Temp Dewpoint Dewpoint Depression Visibility Wind Speed Wind Dir Waves Ship Positions

Polar Bear

Last reported at 2015-Mar-27 00:29 UTC. Time now 2015-Apr-21 06:38 UTC.
Position N 49°10' W 123°55'.
Warning: this ship's position is 25 days out of date.

Length 28 m; draft 2.3 m.

Type: Pleasure craft. MMSI: 512172000.

Date/timePositionNaut miles runAvg speedWind from/ knotsBaromVisibWave heightAir tempDewpointWater temp
2015-Mar-27 00:29N 49°10' W 123°55'8 8.4
2015-Mar-26 23:33N 49°11' W 123°44'1010.4
2015-Mar-26 22:33N 49°05' W 123°31'1010.0
2015-Mar-26 21:33N 48°58' W 123°19'9 9.3
2015-Mar-26 20:32N 48°52' W 123°08'9 8.6
2015-Mar-26 19:33N 48°46' W 122°59'1010.0
2015-Mar-26 18:33N 48°41' W 122°46'9 9.4
2015-Mar-26 17:33N 48°32' W 122°40'2 1.6
2015-Mar-26 16:32N 48°31' W 122°39'0 0.0
2015-Mar-26 15:32N 48°31' W 122°39'2 2.0
2015-Mar-26 14:34N 48°31' W 122°36'0 0.4
2015-Mar-26 13:33N 48°31' W 122°36'0 0.0
2015-Mar-26 12:33N 48°31' W 122°36'0 0.0
2015-Mar-26 11:33N 48°31' W 122°36'0 0.0
2015-Mar-26 10:27N 48°31' W 122°36'0 0.0
2015-Mar-26 09:27N 48°31' W 122°36'0 0.0
2015-Mar-26 08:33N 48°31' W 122°36'0 0.0
2015-Mar-26 07:33N 48°31' W 122°36'0 0.0
2015-Mar-26 06:33N 48°31' W 122°36'0 0.0
2015-Mar-26 05:33N 48°31' W 122°36'0 0.0
2015-Mar-26 03:33N 48°31' W 122°36'0 0.0
2015-Mar-26 02:27N 48°31' W 122°36'0 0.0
2015-Mar-26 01:33N 48°31' W 122°36'0 0.0
2015-Mar-26 00:33N 48°31' W 122°36'0 0.0
2015-Mar-25 23:33N 48°31' W 122°36'0 0.0
2015-Mar-25 22:33N 48°31' W 122°36'0 0.0
2015-Mar-25 21:30N 48°31' W 122°36'0 0.0
2015-Mar-25 20:33N 48°31' W 122°36'0 0.0
2015-Mar-25 19:33N 48°31' W 122°36'4 4.0
2015-Mar-25 18:33N 48°35' W 122°36'1010.2
2015-Mar-25 17:33N 48°41' W 122°47'10 9.7
2015-Mar-25 16:33N 48°44' W 123°01'10 0.6
2015-Mar-25 00:33N 48°48' W 123°15'1110.1
2015-Mar-24 23:29N 48°54' W 123°28'1210.0
2015-Mar-24 22:17N 49°03' W 123°41'810.3
2015-Mar-24 21:28N 49°09' W 123°50'  

Dump ship's entire track history